Time;durP1;ratioP1;P1;durP2;ratioP2;P2;SDS_P1;SDS_P2;PMS_P1;PMS_P2;Temp;Humidity;BMP_temperature;BMP_pressure;BME280_temperature;BME280_humidity;BME280_pressure;Samples;Min_cycle;Max_cycle;Signal;HPM_P1;HPM_P2
2022/12/20 00:01:51;;;;;;;2.07;1.33;;;;;;;4.84;75.08;100466.38;10510142;28;20218;-83
2022/12/20 00:07:13;;;;;;;1.73;1.33;;;;;;;4.81;75.19;100472.53;10495247;28;20202;-83
2022/12/20 00:12:35;;;;;;;1.80;1.20;;;;;;;5.16;73.74;100473.31;10503536;28;20223;-81
2022/12/20 00:17:57;;;;;;;2.70;1.20;;;;;;;5.14;73.05;100465.22;10486000;28;20223;-82
2022/12/20 00:23:19;;;;;;;2.57;0.90;;;;;;;5.03;73.52;100455.28;10484501;28;20550;-82
2022/12/20 00:28:42;;;;;;;1.60;1.10;;;;;;;5.18;73.10;100455.13;10489651;28;20201;-82
2022/12/20 00:34:04;;;;;;;2.00;1.17;;;;;;;5.33;72.63;100434.56;10489000;28;20199;-81
2022/12/20 00:39:26;;;;;;;2.77;1.13;;;;;;;5.31;72.80;100411.69;10543275;28;20230;-81
2022/12/20 00:44:48;;;;;;;2.97;1.07;;;;;;;5.45;71.97;100403.41;10513900;28;20220;-81
2022/12/20 00:50:10;;;;;;;0.97;0.87;;;;;;;5.29;71.88;100427.91;10530466;28;20212;-82
2022/12/20 00:55:32;;;;;;;2.70;1.00;;;;;;;5.67;70.52;100419.59;10526073;28;20223;-81
2022/12/20 01:00:54;;;;;;;2.17;1.10;;;;;;;5.49;71.04;100433.25;10529653;28;20206;-82
2022/12/20 01:06:17;;;;;;;1.77;0.83;;;;;;;5.47;71.08;100432.72;10517012;28;20679;-82
2022/12/20 01:11:39;;;;;;;2.00;0.90;;;;;;;5.41;71.16;100433.91;10521345;28;20268;-82
2022/12/20 01:17:01;;;;;;;1.97;1.10;;;;;;;5.50;71.21;100454.47;10529295;28;20178;-82
2022/12/20 01:22:23;;;;;;;3.60;0.93;;;;;;;5.39;72.33;100452.09;10510730;28;20198;-81
2022/12/20 01:27:46;;;;;;;1.20;1.10;;;;;;;5.28;72.38;100423.44;10511582;28;20198;-83
2022/12/20 01:33:09;;;;;;;1.73;1.13;;;;;;;5.02;73.83;100413.66;10527965;28;20541;-82
2022/12/20 01:38:32;;;;;;;1.23;1.13;;;;;;;5.16;75.07;100398.72;10511428;28;20214;-82
2022/12/20 01:44:00;;;;;;;2.17;1.10;;;;;;;5.39;73.31;100415.75;10528168;28;20216;-82
2022/12/20 01:49:30;;;;;;;2.03;0.90;;;;;;;5.12;74.47;100402.38;10539009;28;20244;-81
2022/12/20 01:55:02;;;;;;;1.50;1.13;;;;;;;5.10;75.34;100407.44;10511075;28;20264;-81
2022/12/20 02:00:25;;;;;;;2.03;1.17;;;;;;;5.16;75.32;100395.09;10485725;28;20546;-82
2022/12/20 02:05:47;;;;;;;3.20;1.20;;;;;;;5.30;74.93;100401.63;10485649;28;20199;-82
2022/12/20 02:11:28;;;;;;;0.93;0.83;;;;;;;5.29;74.68;100394.38;10486045;28;20183;-81
2022/12/20 02:16:58;;;;;;;1.53;1.20;;;;;;;5.27;75.47;100377.06;10535671;28;20723;-83
2022/12/20 02:22:51;;;;;;;1.63;1.07;;;;;;;5.21;74.98;100390.28;10508890;28;20218;-82
2022/12/20 02:28:19;;;;;;;2.03;0.90;;;;;;;5.06;75.91;100362.50;10541533;28;20190;-81
2022/12/20 02:33:42;;;;;;;1.73;1.00;;;;;;;5.34;75.32;100363.56;10544048;28;20190;-82
2022/12/20 02:39:04;;;;;;;1.20;0.90;;;;;;;5.05;75.91;100365.59;10562367;28;20534;-81
2022/12/20 02:50:09;;;;;;;5.00;1.10;;;;;;;5.15;74.91;100359.91;10517951;28;20577;-81
2022/12/20 02:55:43;;;;;;;2.27;1.50;;;;;;;5.23;74.86;100362.88;10523013;28;20223;-82
2022/12/20 03:01:17;;;;;;;1.93;1.30;;;;;;;4.96;76.09;100361.78;10520395;28;20215;-81
2022/12/20 03:06:56;;;;;;;2.37;1.30;;;;;;;5.26;74.73;100347.44;10516749;28;20653;-82
2022/12/20 03:12:18;;;;;;;2.30;1.20;;;;;;;4.88;75.81;100347.34;10516687;28;20210;-81
2022/12/20 03:17:40;;;;;;;2.97;1.40;;;;;;;5.56;73.79;100363.81;10519676;28;20208;-81
2022/12/20 03:23:03;;;;;;;2.27;1.10;;;;;;;5.33;74.75;100383.44;10516362;28;20194;-81
2022/12/20 03:28:25;;;;;;;2.77;1.20;;;;;;;5.10;75.45;100379.50;10500760;28;20199;-81
2022/12/20 03:33:52;;;;;;;3.70;1.30;;;;;;;5.23;75.91;100374.06;10503648;28;20199;-82
2022/12/20 03:39:14;;;;;;;3.23;1.27;;;;;;;5.09;77.44;100373.09;10523752;28;20249;-82
2022/12/20 03:44:37;;;;;;;2.50;1.40;;;;;;;5.03;79.03;100367.84;10528453;28;20256;-82
2022/12/20 03:50:02;;;;;;;2.00;1.83;;;;;;;5.12;78.34;100378.06;10528656;28;20199;-81
2022/12/20 03:55:25;;;;;;;2.23;1.50;;;;;;;4.70;80.38;100373.25;10510929;28;20226;-81
2022/12/20 04:00:49;;;;;;;1.60;1.20;;;;;;;4.79;80.45;100368.69;10534025;28;20260;-83
2022/12/20 04:06:16;;;;;;;3.10;1.70;;;;;;;4.76;82.04;100362.84;10520969;28;20203;-82
2022/12/20 04:11:38;;;;;;;2.27;1.30;;;;;;;4.74;81.66;100354.75;10527517;28;20195;-81
2022/12/20 04:17:02;;;;;;;2.70;1.50;;;;;;;4.96;80.73;100353.41;10537476;28;20236;-81
2022/12/20 04:22:24;;;;;;;1.17;1.07;;;;;;;4.70;80.87;100345.34;10524942;28;20210;-81
2022/12/20 04:27:46;;;;;;;2.80;1.90;;;;;;;4.81;80.45;100337.66;10489144;28;20664;-82
2022/12/20 04:33:09;;;;;;;2.53;1.40;;;;;;;4.92;80.55;100349.53;10526821;28;20256;-81
2022/12/20 04:38:31;;;;;;;2.30;1.53;;;;;;;4.62;82.85;100351.53;10522236;28;20210;-81
2022/12/20 04:43:56;;;;;;;4.27;1.80;;;;;;;4.65;83.99;100344.53;10499465;28;20194;-82
2022/12/20 04:49:18;;;;;;;2.43;1.63;;;;;;;4.80;84.17;100336.84;10526735;28;20498;-82
2022/12/20 04:54:40;;;;;;;1.83;1.60;;;;;;;4.70;83.90;100330.53;10512082;28;20226;-82
2022/12/20 05:00:06;;;;;;;2.17;1.50;;;;;;;4.71;83.80;100344.22;10497232;28;20549;-84
2022/12/20 05:05:36;;;;;;;2.57;1.43;;;;;;;4.64;84.71;100345.66;10524453;28;20202;-83
2022/12/20 05:11:00;;;;;;;2.93;1.70;;;;;;;4.68;84.41;100344.78;10508142;28;20194;-82
2022/12/20 05:16:22;;;;;;;2.60;1.30;;;;;;;4.40;87.09;100348.44;10508529;28;20210;-83
2022/12/20 05:27:40;;;;;;;2.40;1.87;;;;;;;4.43;87.51;100339.47;10534818;28;20198;-83
2022/12/20 05:33:06;;;;;;;2.83;1.97;;;;;;;4.37;87.02;100332.28;10514769;28;20243;-82
2022/12/20 05:38:29;;;;;;;3.13;1.87;;;;;;;4.40;86.84;100317.75;10546027;28;20476;-84
2022/12/20 05:43:53;;;;;;;4.20;2.10;;;;;;;4.53;86.70;100308.66;10508792;28;20257;-83
2022/12/20 05:49:19;;;;;;;4.43;2.27;;;;;;;4.62;85.72;100301.28;10502742;28;20198;-83
2022/12/20 05:54:45;;;;;;;3.20;1.70;;;;;;;4.49;86.25;100290.84;10502953;28;20218;-83
2022/12/20 06:00:09;;;;;;;2.07;1.70;;;;;;;4.75;84.22;100294.16;10508072;28;20489;-83
2022/12/20 06:05:31;;;;;;;2.70;1.60;;;;;;;4.65;83.85;100289.53;10511032;28;20480;-83
2022/12/20 06:11:02;;;;;;;4.37;2.00;;;;;;;4.76;84.08;100288.28;10505376;28;20245;-83
2022/12/20 06:16:30;;;;;;;2.50;1.83;;;;;;;4.86;82.84;100290.94;10528644;28;20267;-83
2022/12/20 06:21:53;;;;;;;2.27;1.63;;;;;;;4.74;82.76;100279.38;10525869;28;20271;-83
2022/12/20 06:27:21;;;;;;;3.27;1.60;;;;;;;4.87;81.45;100278.66;10522540;28;20202;-84
2022/12/20 06:32:49;;;;;;;2.63;1.87;;;;;;;4.88;80.93;100299.88;10545303;28;20606;-83
2022/12/20 06:38:11;;;;;;;1.73;1.60;;;;;;;4.89;81.14;100279.19;10539078;28;20263;-84
2022/12/20 06:43:34;;;;;;;3.30;1.80;;;;;;;4.79;80.96;100278.50;10513764;28;20207;-84
2022/12/20 06:48:57;;;;;;;3.17;1.77;;;;;;;5.07;79.40;100279.53;10523539;28;20649;-84
2022/12/20 06:54:19;;;;;;;4.40;1.73;;;;;;;5.36;78.50;100269.09;10502231;28;20199;-83
2022/12/20 06:59:42;;;;;;;2.30;1.63;;;;;;;5.31;78.18;100251.56;10513662;28;20244;-83
2022/12/20 07:05:04;;;;;;;3.40;1.40;;;;;;;5.01;78.70;100241.59;10527742;28;20271;-84
2022/12/20 07:10:26;;;;;;;2.47;1.47;;;;;;;5.13;78.70;100245.63;10504585;28;20275;-83
2022/12/20 07:15:48;;;;;;;3.33;1.67;;;;;;;5.06;78.76;100250.75;10448723;28;20226;-83
2022/12/20 07:21:12;;;;;;;1.33;1.23;;;;;;;5.12;78.25;100243.94;10430606;28;20249;-84
2022/12/20 07:26:35;;;;;;;2.40;1.37;;;;;;;5.11;77.86;100242.28;10464944;28;20192;-83
2022/12/20 07:31:57;;;;;;;1.30;1.17;;;;;;;5.37;76.53;100228.00;10464862;28;20184;-84
2022/12/20 07:37:19;;;;;;;1.37;1.07;;;;;;;5.19;77.07;100232.44;10442733;28;20200;-82
2022/12/20 07:42:41;;;;;;;1.53;1.13;;;;;;;5.15;77.71;100226.63;10454693;28;20616;-83
2022/12/20 07:48:04;;;;;;;1.87;1.33;;;;;;;5.38;76.75;100235.22;10447716;28;20496;-84
2022/12/20 07:53:27;;;;;;;2.23;1.17;;;;;;;5.24;76.63;100235.19;10446010;28;20195;-84
2022/12/20 07:58:50;;;;;;;1.33;0.90;;;;;;;5.33;76.20;100224.97;10439282;28;20575;-83
2022/12/20 08:04:16;;;;;;;2.10;1.17;;;;;;;5.39;76.07;100218.16;10443735;28;20612;-84
2022/12/20 08:09:40;;;;;;;3.03;1.17;;;;;;;5.40;75.87;100224.56;10459299;28;20195;-83
2022/12/20 08:15:03;;;;;;;3.07;1.03;;;;;;;5.46;75.11;100215.81;10492717;28;20581;-83
2022/12/20 08:20:25;;;;;;;1.03;0.93;;;;;;;5.74;73.85;100230.72;10523888;28;20213;-83
2022/12/20 08:25:47;;;;;;;1.83;1.03;;;;;;;5.66;74.07;100250.16;10536606;28;20194;-83
2022/12/20 08:31:11;;;;;;;2.67;1.20;;;;;;;5.68;73.63;100239.50;10526224;28;20216;-83
2022/12/20 08:36:33;;;;;;;3.43;1.30;;;;;;;5.66;74.27;100217.44;10515309;28;20202;-84
2022/12/20 08:41:55;;;;;;;1.53;0.90;;;;;;;5.57;73.88;100206.13;10511172;28;20287;-84
2022/12/20 08:47:18;;;;;;;2.07;0.87;;;;;;;5.66;74.10;100211.84;10519535;28;20206;-83
2022/12/20 08:52:40;;;;;;;1.40;1.00;;;;;;;5.64;73.83;100197.31;10500033;28;20195;-83
2022/12/20 08:58:02;;;;;;;1.07;0.67;;;;;;;5.48;73.86;100195.94;10527064;28;20263;-83
2022/12/20 09:03:25;;;;;;;2.27;0.90;;;;;;;6.17;71.13;100196.91;10513083;28;20236;-84
2022/12/20 09:08:48;;;;;;;2.37;1.00;;;;;;;5.94;71.96;100193.16;10527814;28;20255;-84
2022/12/20 09:14:10;;;;;;;2.80;0.80;;;;;;;6.07;72.19;100186.75;10487309;28;20264;-83
2022/12/20 09:19:32;;;;;;;3.13;1.00;;;;;;;6.13;71.33;100193.94;10487081;28;20211;-83
2022/12/20 09:24:55;;;;;;;1.07;0.90;;;;;;;6.07;71.77;100197.13;10489004;28;20213;-84
2022/12/20 09:30:18;;;;;;;1.57;0.80;;;;;;;6.36;69.95;100196.84;10527522;28;20278;-84
2022/12/20 09:35:46;;;;;;;3.10;1.53;;;;;;;6.25;70.91;100199.84;10542060;28;20193;-83
2022/12/20 09:41:33;;;;;;;2.73;1.43;;;;;;;6.00;71.60;100208.72;10469997;28;20619;-83
2022/12/20 09:47:19;;;;;;;1.07;0.90;;;;;;;6.13;70.85;100207.94;10497166;28;20549;-84
2022/12/20 09:53:11;;;;;;;1.33;0.73;;;;;;;6.16;71.64;100204.47;10531125;28;20231;-83
2022/12/20 09:58:51;;;;;;;0.70;0.70;;;;;;;6.44;70.83;100207.34;10523291;28;20273;-84
2022/12/20 10:04:27;;;;;;;2.00;0.90;;;;;;;6.12;72.12;100194.25;10509998;28;20222;-84
2022/12/20 10:09:55;;;;;;;1.50;1.10;;;;;;;6.26;71.42;100206.28;10496595;28;20186;-84
2022/12/20 10:15:21;;;;;;;2.43;1.10;;;;;;;6.24;72.26;100198.19;10542045;28;20248;-84
2022/12/20 10:21:02;;;;;;;1.77;0.60;;;;;;;6.29;71.76;100200.03;10527549;28;20206;-85
2022/12/20 10:26:25;;;;;;;3.60;0.70;;;;;;;6.25;71.49;100180.25;10527665;28;20240;-84
2022/12/20 10:31:54;;;;;;;1.83;0.70;;;;;;;6.37;71.76;100176.09;10493226;28;20198;-85
2022/12/20 10:37:17;;;;;;;2.07;0.70;;;;;;;6.15;72.43;100158.06;10506915;28;20602;-85
2022/12/20 10:42:40;;;;;;;2.97;1.00;;;;;;;6.37;72.04;100150.91;10507922;28;20218;-83
2022/12/20 10:48:30;;;;;;;3.37;0.67;;;;;;;6.49;72.09;100145.66;10496268;28;20256;-84
2022/12/20 10:54:01;;;;;;;1.43;0.73;;;;;;;6.38;72.06;100127.38;10496383;28;20483;-85
2022/12/20 10:59:35;;;;;;;2.10;0.90;;;;;;;6.48;71.82;100124.38;10527513;28;20191;-84
2022/12/20 11:05:01;;;;;;;1.07;0.63;;;;;;;6.40;72.34;100111.13;10517925;28;20243;-84
2022/12/20 11:10:27;;;;;;;2.37;1.60;;;;;;;6.50;72.50;100105.31;10533462;28;20248;-84
2022/12/20 11:15:50;;;;;;;2.40;0.80;;;;;;;6.79;71.18;100108.56;10532298;28;20307;-84
2022/12/20 11:21:22;;;;;;;2.30;1.20;;;;;;;6.52;72.01;100097.44;10540943;28;20214;-84
2022/12/20 11:27:12;;;;;;;1.13;0.70;;;;;;;6.64;71.74;100100.50;10532292;28;20240;-84
2022/12/20 11:32:59;;;;;;;3.23;0.70;;;;;;;6.64;71.21;100094.91;10513150;28;20551;-84
2022/12/20 11:38:30;;;;;;;1.00;0.80;;;;;;;6.80;70.85;100081.38;10559303;28;20220;-85
2022/12/20 11:44:15;;;;;;;2.03;0.97;;;;;;;6.84;70.55;100069.22;10526835;28;20272;-84
2022/12/20 11:50:08;;;;;;;1.07;0.80;;;;;;;6.52;71.49;100058.22;10536610;28;20220;-85
2022/12/20 11:55:33;;;;;;;1.60;0.80;;;;;;;6.76;71.39;100074.75;10546751;28;20232;-85
2022/12/20 12:01:11;;;;;;;1.60;0.80;;;;;;;6.57;71.68;100069.28;10531164;28;20284;-85
2022/12/20 12:06:38;;;;;;;4.23;1.20;;;;;;;6.68;71.24;100051.09;10528704;28;20510;-84
2022/12/20 12:12:04;;;;;;;2.73;0.87;;;;;;;6.71;70.52;100044.88;10540880;28;20190;-85
2022/12/20 12:17:37;;;;;;;2.93;0.80;;;;;;;6.82;70.29;100035.09;10534242;28;20526;-84
2022/12/20 12:23:33;;;;;;;5.27;1.50;;;;;;;6.45;71.10;100043.81;10515720;28;20218;-85
2022/12/20 12:28:58;;;;;;;2.10;0.80;;;;;;;6.71;70.31;100032.84;10532369;28;20194;-85
2022/12/20 12:34:40;;;;;;;2.80;1.00;;;;;;;6.51;71.01;100046.22;10514279;28;20240;-85
2022/12/20 12:40:30;;;;;;;1.53;0.90;;;;;;;6.60;71.13;100054.66;10543256;28;20191;-83
2022/12/20 12:45:57;;;;;;;1.43;0.97;;;;;;;6.59;71.20;100041.81;10530485;28;20198;-85
2022/12/20 12:51:27;;;;;;;1.27;1.00;;;;;;;6.74;70.78;100061.06;10543625;28;20182;-84
2022/12/20 12:56:50;;;;;;;1.90;0.90;;;;;;;6.73;71.03;100053.81;10532717;28;20222;-84
2022/12/20 13:02:12;;;;;;;1.83;0.90;;;;;;;6.71;73.16;100036.47;10539264;28;20210;-84
2022/12/20 13:07:34;;;;;;;3.20;1.10;;;;;;;6.13;76.83;100054.03;10530296;28;20198;-84
2022/12/20 13:13:01;;;;;;;5.20;1.30;;;;;;;6.37;75.82;100036.97;10531105;28;20248;-85
2022/12/20 13:18:24;;;;;;;1.17;0.90;;;;;;;6.26;75.44;100033.59;10528251;28;20198;-85
2022/12/20 13:23:46;;;;;;;2.00;1.20;;;;;;;6.48;75.29;100046.00;10539130;28;20218;-85
2022/12/20 13:29:26;;;;;;;4.97;1.33;;;;;;;6.22;76.89;100062.50;10501647;28;20195;-84
2022/12/20 13:34:57;;;;;;;2.60;1.30;;;;;;;6.21;76.86;100063.63;10509964;28;20210;-85
2022/12/20 13:40:30;;;;;;;3.13;1.10;;;;;;;6.16;78.32;100060.94;10511828;28;20511;-84
2022/12/20 13:46:10;;;;;;;4.63;1.37;;;;;;;5.71;82.77;100065.53;10514526;28;20198;-84
2022/12/20 13:51:32;;;;;;;2.40;1.60;;;;;;;5.93;83.31;100051.63;10526102;28;20188;-84
2022/12/20 13:56:55;;;;;;;2.10;1.30;;;;;;;5.68;84.77;100040.97;10524677;28;20210;-84
2022/12/20 14:02:20;;;;;;;3.77;1.60;;;;;;;5.54;86.82;100044.59;10507236;28;20210;-84
2022/12/20 14:07:42;;;;;;;2.77;1.70;;;;;;;5.82;84.80;100047.41;10518380;28;20214;-84
2022/12/20 14:13:23;;;;;;;5.30;1.93;;;;;;;5.82;83.93;100050.19;10503204;28;20491;-84
2022/12/20 14:18:50;;;;;;;5.27;1.63;;;;;;;5.92;83.11;100055.56;10522290;28;20191;-84
2022/12/20 14:24:20;;;;;;;2.80;1.20;;;;;;;5.94;83.55;100064.50;10535566;28;20236;-84
2022/12/20 14:29:45;;;;;;;2.63;1.20;;;;;;;5.74;84.30;100065.75;10532246;28;20235;-85
2022/12/20 14:35:19;;;;;;;3.23;1.70;;;;;;;5.63;83.99;100069.06;10525578;28;20198;-84
2022/12/20 14:40:42;;;;;;;3.07;1.70;;;;;;;5.91;84.09;100065.09;10526476;28;20287;-84
2022/12/20 14:46:18;;;;;;;2.60;1.50;;;;;;;5.96;83.24;100056.63;10498184;28;20470;-85
2022/12/20 14:51:40;;;;;;;5.47;2.10;;;;;;;5.61;84.26;100060.13;10516024;28;20582;-84
2022/12/20 14:57:02;;;;;;;3.03;1.57;;;;;;;5.87;85.45;100053.72;10515754;28;20271;-83
2022/12/20 15:02:55;;;;;;;5.50;1.80;;;;;;;5.87;85.34;100053.72;10528409;27;20226;-84
2022/12/20 15:08:27;;;;;;;5.27;1.70;;;;;;;5.62;86.34;100045.03;10542903;28;20253;-83
2022/12/20 15:13:53;;;;;;;4.53;2.00;;;;;;;5.75;85.62;100027.44;10543123;28;20237;-83
2022/12/20 15:19:15;;;;;;;4.60;2.13;;;;;;;5.67;85.45;100031.75;10526221;28;20206;-82
2022/12/20 15:24:37;;;;;;;5.63;2.13;;;;;;;5.54;86.51;100030.59;10509912;28;20521;-82
2022/12/20 15:30:00;;;;;;;5.23;2.20;;;;;;;5.48;87.15;100029.06;10528432;28;20198;-83
2022/12/20 15:35:23;;;;;;;4.97;2.30;;;;;;;5.31;87.39;100034.41;10508249;28;20221;-83
2022/12/20 15:40:47;;;;;;;3.83;2.60;;;;;;;5.64;87.57;100025.94;10510046;28;20322;-83
2022/12/20 15:46:09;;;;;;;3.53;2.40;;;;;;;5.67;87.44;100022.53;10525794;28;20644;-82
2022/12/20 15:51:32;;;;;;;6.17;2.20;;;;;;;5.75;87.05;100024.63;10504434;28;20202;-83
2022/12/20 15:56:56;;;;;;;4.40;2.50;;;;;;;5.48;88.00;100023.47;10494945;28;20234;-83
2022/12/20 16:02:26;;;;;;;5.00;2.60;;;;;;;5.61;87.37;100016.25;10530744;28;20256;-82
2022/12/20 16:07:48;;;;;;;6.73;2.93;;;;;;;5.65;87.38;100008.03;10537123;28;20195;-82
2022/12/20 16:13:15;;;;;;;4.40;2.40;;;;;;;5.28;88.47;100004.28;10514282;28;20383;-83
2022/12/20 16:18:38;;;;;;;5.57;2.50;;;;;;;5.43;87.85;99992.81;10508982;28;20272;-82
2022/12/20 16:24:01;;;;;;;4.13;3.13;;;;;;;5.43;87.29;99989.19;10502328;28;20638;-83
2022/12/20 16:29:23;;;;;;;2.13;1.70;;;;;;;5.49;85.96;99990.75;10510265;28;20260;-84
2022/12/20 16:34:50;;;;;;;3.80;1.90;;;;;;;5.44;86.01;99988.88;10510329;28;20222;-86
2022/12/20 16:40:14;;;;;;;3.03;1.80;;;;;;;5.37;86.65;99999.63;10503735;28;20683;-84
2022/12/20 16:45:36;;;;;;;3.57;2.60;;;;;;;5.48;86.65;99995.53;10494003;28;20253;-83
2022/12/20 16:50:58;;;;;;;3.30;1.37;;;;;;;5.63;84.99;100001.94;10513413;28;20267;-83
2022/12/20 16:56:21;;;;;;;5.93;2.40;;;;;;;5.52;84.86;100002.13;10504147;28;20250;-83
2022/12/20 17:01:44;;;;;;;4.20;1.77;;;;;;;5.70;84.08;99996.75;10498364;28;20307;-83
2022/12/20 17:07:07;;;;;;;2.43;1.97;;;;;;;5.70;83.02;99996.75;10510385;28;20222;-84
2022/12/20 17:12:29;;;;;;;4.87;2.20;;;;;;;5.47;84.04;99998.63;10498118;28;20620;-84
2022/12/20 17:17:52;;;;;;;3.43;1.73;;;;;;;5.61;84.15;100001.44;10533520;28;20244;-84
2022/12/20 17:23:14;;;;;;;4.13;1.90;;;;;;;5.50;84.52;99998.00;10524661;28;20249;-86
2022/12/20 17:28:34;;;;;;;3.30;1.93;;;;;;;5.78;83.12;99996.84;10492629;28;20292;-85
2022/12/20 17:33:57;;;;;;;4.63;2.03;;;;;;;5.75;83.43;99988.28;10498943;28;20699;-86
2022/12/20 17:39:21;;;;;;;2.43;1.93;;;;;;;5.77;82.92;99985.97;10499983;28;20226;-84
2022/12/20 17:44:44;;;;;;;5.93;2.20;;;;;;;5.65;83.30;99980.06;10482441;28;20262;-84
2022/12/20 17:50:07;;;;;;;3.17;1.97;;;;;;;5.73;83.68;99984.97;10514011;28;20226;-85
2022/12/20 17:55:29;;;;;;;4.60;2.43;;;;;;;5.61;84.10;99976.28;10479971;28;20242;-86
2022/12/20 18:00:52;;;;;;;3.40;1.70;;;;;;;5.85;82.48;99960.09;10482683;28;20588;-84
2022/12/20 18:06:14;;;;;;;4.00;2.70;;;;;;;6.00;82.14;99954.16;10498648;28;20207;-84
2022/12/20 18:11:37;;;;;;;2.97;1.43;;;;;;;5.69;83.09;99950.38;10491609;28;20211;-85
2022/12/20 18:16:59;;;;;;;4.43;1.97;;;;;;;5.86;82.68;99961.75;10490412;28;20249;-85
2022/12/20 18:22:22;;;;;;;2.53;1.77;;;;;;;5.86;81.57;99965.38;10482216;28;20302;-84
2022/12/20 18:27:44;;;;;;;3.00;2.00;;;;;;;5.94;81.85;99970.22;10485028;28;20234;-85
2022/12/20 18:33:07;;;;;;;3.37;2.10;;;;;;;6.11;81.61;99961.16;10493715;28;20272;-84
2022/12/20 18:38:29;;;;;;;2.83;2.00;;;;;;;6.17;81.72;99967.47;10494742;28;20221;-85
2022/12/20 18:43:52;;;;;;;1.63;1.53;;;;;;;5.80;83.40;99957.38;10479389;28;20281;-86
2022/12/20 18:49:15;;;;;;;2.73;1.87;;;;;;;5.81;83.44;99965.47;10491798;28;20230;-85
2022/12/20 18:54:37;;;;;;;1.73;1.60;;;;;;;5.54;85.26;99963.53;10498020;28;20596;-86
2022/12/20 19:00:00;;;;;;;3.27;2.10;;;;;;;5.84;84.34;99959.25;10483766;28;20656;-86
2022/12/20 19:05:23;;;;;;;4.67;2.43;;;;;;;5.73;84.82;99951.41;10486760;28;20246;-82
2022/12/20 19:10:45;;;;;;;5.37;2.33;;;;;;;5.75;84.81;99955.56;10476013;28;20838;-83
2022/12/20 19:16:12;;;;;;;4.47;2.20;;;;;;;5.75;85.27;99957.53;10475883;28;20246;-83
2022/12/20 19:21:36;;;;;;;3.90;2.20;;;;;;;5.36;86.96;99960.84;10507014;28;20609;-83
2022/12/20 19:26:58;;;;;;;3.70;2.17;;;;;;;5.50;87.19;99970.84;10499634;28;20285;-83
2022/12/20 19:32:20;;;;;;;3.60;2.90;;;;;;;5.42;87.81;99959.59;10456913;28;20224;-84
2022/12/20 19:37:43;;;;;;;4.43;2.20;;;;;;;5.77;86.26;99956.03;10470067;28;20604;-83
2022/12/20 19:43:05;;;;;;;5.43;2.50;;;;;;;5.76;86.23;99956.38;10474766;28;20247;-84
2022/12/20 19:48:27;;;;;;;5.80;3.13;;;;;;;5.69;86.38;99964.34;10452282;28;20239;-86
2022/12/20 19:53:52;;;;;;;3.73;2.43;;;;;;;6.14;85.25;99963.34;10471497;28;20241;-85
2022/12/20 19:59:15;;;;;;;6.03;2.70;;;;;;;5.85;85.39;99966.50;10466697;28;20231;-84
2022/12/20 20:04:37;;;;;;;4.93;2.93;;;;;;;5.74;86.11;99955.84;10486948;28;20291;-84
2022/12/20 20:09:59;;;;;;;2.80;2.60;;;;;;;5.59;87.73;99960.63;10484436;28;20616;-84
2022/12/20 20:15:22;;;;;;;4.67;3.07;;;;;;;5.69;87.90;99958.75;10436187;28;20297;-85
2022/12/20 20:20:45;;;;;;;3.63;2.87;;;;;;;5.30;89.80;99954.50;10418420;28;20238;-84
2022/12/20 20:26:09;;;;;;;9.20;3.70;;;;;;;5.52;89.27;99963.00;10442609;28;20235;-83
2022/12/20 20:31:32;;;;;;;4.27;3.10;;;;;;;5.29;90.16;99958.44;10413693;28;21021;-83
2022/12/20 20:36:54;;;;;;;4.83;3.17;;;;;;;5.39;90.09;99961.03;10447623;28;20290;-83
2022/12/20 20:42:16;;;;;;;6.00;3.50;;;;;;;5.46;90.22;99961.47;10429675;28;20269;-84
2022/12/20 20:47:38;;;;;;;7.20;3.90;;;;;;;5.38;90.93;99945.41;10443374;28;20224;-84
2022/12/20 20:53:00;;;;;;;4.83;3.60;;;;;;;5.29;91.51;99947.25;10434857;28;20604;-85
2022/12/20 20:58:23;;;;;;;4.70;3.43;;;;;;;5.63;90.36;99941.28;10458695;28;20884;-86
2022/12/20 21:03:45;;;;;;;4.47;3.07;;;;;;;5.47;91.34;99935.16;10455739;28;20271;-85
2022/12/20 21:09:08;;;;;;;5.57;3.23;;;;;;;5.64;91.09;99928.09;10425973;28;20223;-85
2022/12/20 21:14:30;;;;;;;4.10;3.03;;;;;;;5.72;90.72;99933.78;10487526;28;20222;-84
2022/12/20 21:19:53;;;;;;;4.13;2.60;;;;;;;5.61;90.91;99925.94;10527054;28;20202;-84
2022/12/20 21:25:15;;;;;;;3.23;3.00;;;;;;;5.66;91.45;99932.25;10501314;28;20214;-84
2022/12/20 21:30:37;;;;;;;3.10;2.80;;;;;;;5.46;91.42;99936.31;10497689;28;20439;-83
2022/12/20 21:36:01;;;;;;;5.30;2.80;;;;;;;5.97;91.04;99934.38;10516748;28;20659;-87
2022/12/20 21:41:25;;;;;;;2.40;2.20;;;;;;;5.80;91.81;99940.59;10541276;28;20717;-83
2022/12/20 21:46:48;;;;;;;2.27;2.07;;;;;;;5.50;92.49;99944.91;10545645;27;20774;-83
2022/12/20 21:52:10;;;;;;;3.13;2.67;;;;;;;5.85;92.38;99946.09;10504138;28;20207;-84
2022/12/20 21:57:32;;;;;;;3.47;2.47;;;;;;;5.47;94.10;99959.50;10479311;28;20227;-83
2022/12/20 22:02:54;;;;;;;3.80;3.00;;;;;;;5.86;92.46;99945.78;10502015;28;20214;-83
2022/12/20 22:08:17;;;;;;;4.50;2.83;;;;;;;5.65;93.51;99950.16;10526259;28;20490;-83
2022/12/20 22:13:40;;;;;;;2.70;2.50;;;;;;;5.63;94.03;99940.44;10519412;28;20226;-84
2022/12/20 22:19:03;;;;;;;2.70;1.77;;;;;;;5.49;94.29;99948.84;10502187;28;20207;-85
2022/12/20 22:24:25;;;;;;;1.70;1.60;;;;;;;5.22;95.13;99952.44;10496024;28;20215;-84
2022/12/20 22:29:47;;;;;;;2.40;1.90;;;;;;;5.42;93.51;99946.44;10482023;28;20207;-84
2022/12/20 22:35:09;;;;;;;2.27;1.70;;;;;;;5.47;93.80;99960.31;10477157;28;20202;-84
2022/12/20 22:40:32;;;;;;;1.40;1.30;;;;;;;5.57;93.24;99948.94;10503993;28;20186;-85
2022/12/20 22:45:57;;;;;;;2.10;1.87;;;;;;;5.56;93.64;99947.28;10495168;28;20511;-84
2022/12/20 22:51:21;;;;;;;1.70;1.60;;;;;;;5.74;92.65;99942.72;10498235;28;20272;-85
2022/12/20 22:56:43;;;;;;;2.93;1.60;;;;;;;5.75;92.16;99943.53;10493961;28;20227;-86
2022/12/20 23:02:05;;;;;;;2.13;1.97;;;;;;;6.07;90.87;99951.75;10499430;28;20204;-85
2022/12/20 23:07:28;;;;;;;2.23;1.90;;;;;;;6.00;90.24;99951.34;10510355;28;20202;-85
2022/12/20 23:18:31;;;;;;;3.13;1.87;;;;;;;5.73;91.68;99946.63;10508806;28;20191;-85
2022/12/20 23:23:53;;;;;;;2.33;2.10;;;;;;;5.65;91.63;99946.53;10517099;28;20279;-86
2022/12/20 23:29:16;;;;;;;2.77;2.50;;;;;;;5.76;91.80;99948.78;10504977;28;20195;-85
2022/12/20 23:34:38;;;;;;;3.67;2.23;;;;;;;5.77;91.93;99955.22;10509906;28;20230;-85
2022/12/20 23:40:00;;;;;;;2.57;2.10;;;;;;;5.51;92.72;99955.75;10480311;28;20206;-86
2022/12/20 23:45:22;;;;;;;2.93;2.43;;;;;;;6.09;90.51;99957.03;10501509;28;20271;-85
2022/12/20 23:50:54;;;;;;;3.00;2.80;;;;;;;6.11;90.89;99954.75;10496810;28;20603;-85
2022/12/20 23:56:19;;;;;;;3.38;3.08;;;;;;;5.72;91.58;99949.75;10507050;28;20677;-86
